createdAt,value
2023-03-01T00:01:23.240Z,69.35
2023-03-01T00:03:53.888Z,68.98
2023-03-01T00:06:23.044Z,69.20
2023-03-01T00:08:51.384Z,69.05
2023-03-01T00:11:21.917Z,68.26
2023-03-01T00:13:51.576Z,67.61
2023-03-01T00:16:21.515Z,67.38
2023-03-01T00:18:49.762Z,67.33
2023-03-01T00:21:20.312Z,67.48
2023-03-01T00:23:49.646Z,67.19
2023-03-01T00:26:19.772Z,67.74
2023-03-01T00:28:48.716Z,67.27
2023-03-01T00:31:18.386Z,67.03
2023-03-01T00:33:47.027Z,67.41
2023-03-01T00:36:16.982Z,67.91
2023-03-01T00:38:47.948Z,67.60
2023-03-01T00:41:18.620Z,67.13
2023-03-01T00:43:47.300Z,66.73
2023-03-01T00:46:17.800Z,66.64
2023-03-01T00:48:46.783Z,67.54
2023-03-01T00:51:21.525Z,67.76
2023-03-01T00:53:52.787Z,69.35
2023-03-01T00:56:21.460Z,69.30
2023-03-01T00:58:50.503Z,68.73
2023-03-01T01:01:21.344Z,68.33
2023-03-01T01:03:51.556Z,67.96
2023-03-01T01:06:22.069Z,67.72
2023-03-01T01:08:52.140Z,67.48
2023-03-01T01:11:21.230Z,68.31
2023-03-01T01:13:52.951Z,67.76
2023-03-01T01:16:22.658Z,67.80
2023-03-01T01:18:51.486Z,68.06
2023-03-01T01:21:23.943Z,67.91
2023-03-01T01:23:54.090Z,67.61
2023-03-01T01:26:24.734Z,67.87
2023-03-01T01:28:53.700Z,68.42
2023-03-01T01:31:24.735Z,68.22
2023-03-01T01:33:53.143Z,68.05
2023-03-01T01:36:21.958Z,68.18
2023-03-01T01:38:50.448Z,68.05
2023-03-01T01:41:21.236Z,69.12
2023-03-01T01:43:51.488Z,69.89
2023-03-01T01:46:30.840Z,70.10
2023-03-01T01:49:03.323Z,70.84
2023-03-01T01:51:39.605Z,72.02
2023-03-01T01:54:15.131Z,72.50
2023-03-01T01:56:50.083Z,72.39
2023-03-01T01:59:18.411Z,72.52
2023-03-01T02:01:46.651Z,73.30
2023-03-01T02:04:14.789Z,72.42
2023-03-01T02:06:51.466Z,72.54
2023-03-01T02:09:22.531Z,73.91
2023-03-01T02:11:53.519Z,74.11
2023-03-01T02:14:22.079Z,73.19
2023-03-01T02:16:50.735Z,72.40
2023-03-01T02:19:36.714Z,72.27
2023-03-01T02:22:10.997Z,72.89
2023-03-01T02:24:47.552Z,72.41
2023-03-01T02:27:18.913Z,72.35
2023-03-01T02:29:48.464Z,72.32
2023-03-01T02:32:16.592Z,72.34
2023-03-01T02:34:44.941Z,72.04
2023-03-01T02:37:21.565Z,72.11
2023-03-01T02:39:53.401Z,71.63
2023-03-01T02:42:28.314Z,71.14
2023-03-01T02:44:57.725Z,70.59
2023-03-01T02:47:25.892Z,70.66
2023-03-01T02:49:54.340Z,70.73
2023-03-01T02:52:34.990Z,70.46
2023-03-01T02:55:05.407Z,70.34
2023-03-01T02:57:35.592Z,70.56
2023-03-01T03:00:09.170Z,70.42
2023-03-01T03:02:39.098Z,70.38
2023-03-01T03:05:14.244Z,70.13
2023-03-01T03:07:44.559Z,70.16
2023-03-01T03:10:15.607Z,70.00
2023-03-01T03:12:44.139Z,70.02
2023-03-01T03:15:13.975Z,70.07
2023-03-01T03:17:45.273Z,70.43
2023-03-01T03:20:20.153Z,70.32
2023-03-01T03:22:49.566Z,70.17
2023-03-01T03:25:18.348Z,70.23
2023-03-01T03:27:48.448Z,70.35
2023-03-01T03:30:20.749Z,70.27
2023-03-01T03:32:53.437Z,70.79
2023-03-01T03:35:23.440Z,70.61
2023-03-01T03:38:07.365Z,70.54
2023-03-01T03:40:38.231Z,70.40
2023-03-01T03:43:08.994Z,70.57
2023-03-01T03:45:39.136Z,70.61
2023-03-01T03:48:10.394Z,70.95
2023-03-01T03:50:39.062Z,71.31
2023-03-01T03:53:08.862Z,71.29
2023-03-01T03:55:40.311Z,71.22
2023-03-01T03:58:10.802Z,71.14
2023-03-01T04:00:42.736Z,71.40
2023-03-01T04:03:12.440Z,71.52
2023-03-01T04:05:41.570Z,71.39
2023-03-01T04:08:11.024Z,71.15
2023-03-01T04:10:41.266Z,70.93
2023-03-01T04:13:13.019Z,70.83
2023-03-01T04:15:44.078Z,70.79
2023-03-01T04:18:14.949Z,70.79
2023-03-01T04:20:44.141Z,70.82
2023-03-01T04:23:16.782Z,70.76
2023-03-01T04:25:50.536Z,71.45
2023-03-01T04:28:18.828Z,71.08
2023-03-01T04:30:48.226Z,71.06
2023-03-01T04:33:16.268Z,71.09
2023-03-01T04:35:44.658Z,71.16
2023-03-01T04:38:12.951Z,70.84
2023-03-01T04:40:43.529Z,71.20
2023-03-01T04:43:12.504Z,71.22
2023-03-01T04:45:40.629Z,71.19
2023-03-01T04:48:10.265Z,71.65
2023-03-01T04:50:38.551Z,71.33
2023-03-01T04:53:06.598Z,70.86
2023-03-01T04:55:35.965Z,70.36
2023-03-01T04:58:04.011Z,70.04
2023-03-01T05:00:32.149Z,70.29
2023-03-01T05:03:02.687Z,69.70
2023-03-01T05:05:36.149Z,69.58
2023-03-01T05:08:06.371Z,69.38
2023-03-01T05:10:36.518Z,69.38
2023-03-01T05:13:06.208Z,70.60
2023-03-01T05:15:34.785Z,70.61
2023-03-01T05:18:02.910Z,70.23
2023-03-01T05:20:32.661Z,70.59
2023-03-01T05:23:06.327Z,70.23
2023-03-01T05:25:41.301Z,69.86
2023-03-01T05:28:13.829Z,69.86
2023-03-01T05:30:42.599Z,69.98
2023-03-01T05:33:14.674Z,70.34
2023-03-01T05:35:45.294Z,70.10
2023-03-01T05:38:15.256Z,70.11
2023-03-01T05:40:44.617Z,70.29
2023-03-01T05:43:13.234Z,70.39
2023-03-01T05:45:42.826Z,70.40
2023-03-01T05:48:12.132Z,70.41
2023-03-01T05:50:42.227Z,70.97
2023-03-01T05:53:13.902Z,71.20
2023-03-01T05:55:42.074Z,70.85
2023-03-01T05:58:15.034Z,70.84
2023-03-01T06:00:43.988Z,70.87
2023-03-01T06:03:13.640Z,70.95
2023-03-01T06:05:42.552Z,71.03
2023-03-01T06:08:13.904Z,71.12
2023-03-01T06:10:42.225Z,71.08
2023-03-01T06:13:10.485Z,71.06
2023-03-01T06:15:39.105Z,71.73
2023-03-01T06:18:07.650Z,73.88
2023-03-01T06:20:35.684Z,74.06
2023-03-01T06:23:03.725Z,73.75
2023-03-01T06:25:33.208Z,73.68
2023-03-01T06:28:01.463Z,73.47
2023-03-01T06:30:29.502Z,72.87
2023-03-01T06:33:02.314Z,72.86
2023-03-01T06:35:32.216Z,73.02
2023-03-01T06:38:01.894Z,72.56
2023-03-01T06:40:30.056Z,72.20
2023-03-01T06:43:00.130Z,72.40
2023-03-01T06:45:28.171Z,71.88
2023-03-01T06:48:04.590Z,72.20
2023-03-01T06:50:32.833Z,72.35
2023-03-01T06:53:01.473Z,72.59
2023-03-01T06:55:29.583Z,72.01
2023-03-01T06:57:59.706Z,71.72
2023-03-01T07:00:28.948Z,71.09
2023-03-01T07:02:57.387Z,70.63
2023-03-01T07:05:25.492Z,70.56
2023-03-01T07:07:55.079Z,70.47
2023-03-01T07:10:23.244Z,70.05
2023-03-01T07:12:51.484Z,70.67
2023-03-01T07:15:20.870Z,70.03
2023-03-01T07:17:51.040Z,69.67
2023-03-01T07:20:19.884Z,69.17
2023-03-01T07:22:48.009Z,69.16
2023-03-01T07:25:16.160Z,69.02
2023-03-01T07:27:44.287Z,68.89
2023-03-01T07:30:13.225Z,68.87
2023-03-01T07:32:43.147Z,68.56
2023-03-01T07:35:11.720Z,68.11
2023-03-01T07:37:39.760Z,68.22
2023-03-01T07:40:09.528Z,69.83
2023-03-01T07:42:37.680Z,69.06
2023-03-01T07:45:07.446Z,67.95
2023-03-01T07:47:35.744Z,68.93
2023-03-01T07:50:06.458Z,69.21
2023-03-01T07:52:34.552Z,70.42
2023-03-01T07:55:02.598Z,70.59
2023-03-01T07:57:30.713Z,69.96
2023-03-01T07:59:58.793Z,68.68
2023-03-01T08:02:26.817Z,68.19
2023-03-01T08:04:54.932Z,68.61
2023-03-01T08:07:24.388Z,67.77
2023-03-01T08:09:52.474Z,66.88
2023-03-01T08:12:20.590Z,66.42
2023-03-01T08:14:48.704Z,65.84
2023-03-01T08:17:17.068Z,65.19
2023-03-01T08:19:45.660Z,65.15
2023-03-01T08:22:13.976Z,65.17
2023-03-01T08:24:43.404Z,65.09
2023-03-01T08:27:13.226Z,66.00
2023-03-01T08:29:41.243Z,65.66
2023-03-01T08:32:09.428Z,64.82
2023-03-01T08:34:37.650Z,64.14
2023-03-01T08:37:05.862Z,64.17
2023-03-01T08:39:34.086Z,63.76
2023-03-01T08:42:03.508Z,63.83
2023-03-01T08:44:31.612Z,64.12
2023-03-01T08:46:59.636Z,63.99
2023-03-01T08:49:27.711Z,63.49
2023-03-01T08:51:55.808Z,62.46
2023-03-01T08:54:24.512Z,62.81
2023-03-01T08:56:52.573Z,65.99
2023-03-01T08:59:22.071Z,64.87
2023-03-01T09:01:50.141Z,64.63
2023-03-01T09:04:18.468Z,64.13
2023-03-01T09:06:46.535Z,63.00
2023-03-01T09:09:17.128Z,61.35
2023-03-01T09:11:47.204Z,61.03
2023-03-01T09:14:16.145Z,62.55
2023-03-01T09:16:46.132Z,60.06
2023-03-01T09:19:14.983Z,58.96
2023-03-01T09:21:53.232Z,57.31
2023-03-01T09:24:23.711Z,56.77
2023-03-01T09:26:51.894Z,56.69
2023-03-01T09:29:20.019Z,55.81
2023-03-01T09:31:49.421Z,56.21
2023-03-01T09:34:24.140Z,56.29
2023-03-01T09:36:52.499Z,56.24
2023-03-01T09:39:21.569Z,57.31
2023-03-01T09:41:56.386Z,55.98
2023-03-01T09:44:35.048Z,53.88
2023-03-01T09:47:05.358Z,54.62
2023-03-01T09:49:37.380Z,56.12
2023-03-01T09:52:22.191Z,54.12
2023-03-01T09:55:00.749Z,52.75
2023-03-01T09:57:35.735Z,52.98
2023-03-01T10:00:15.534Z,52.48
2023-03-01T10:02:49.909Z,53.35
2023-03-01T10:05:37.123Z,53.33
2023-03-01T10:08:26.686Z,53.57
2023-03-01T10:10:55.797Z,53.71
2023-03-01T10:13:30.149Z,52.97
2023-03-01T10:16:03.934Z,53.48
2023-03-01T10:18:37.847Z,53.01
2023-03-01T10:21:16.261Z,52.32
2023-03-01T10:23:44.638Z,51.60
2023-03-01T10:26:34.860Z,51.10
2023-03-01T10:29:06.138Z,50.49
2023-03-01T10:31:43.982Z,49.73
2023-03-01T10:34:19.088Z,49.36
2023-03-01T10:36:50.949Z,49.43
2023-03-01T10:39:21.691Z,49.20
2023-03-01T10:42:01.776Z,50.63
2023-03-01T10:44:46.153Z,51.55
2023-03-01T10:47:22.224Z,51.81
2023-03-01T10:50:01.563Z,51.94
2023-03-01T10:52:32.985Z,52.71
2023-03-01T10:55:04.712Z,52.62
2023-03-01T10:57:42.673Z,52.73
2023-03-01T11:00:26.680Z,52.52
2023-03-01T11:03:13.024Z,53.06
2023-03-01T11:05:59.340Z,53.13
2023-03-01T11:08:38.991Z,52.73
2023-03-01T11:11:20.461Z,53.01
2023-03-01T11:13:58.107Z,53.42
2023-03-01T11:16:33.030Z,53.23
2023-03-01T11:19:16.571Z,52.60
2023-03-01T11:21:55.304Z,52.17
2023-03-01T11:24:31.292Z,51.71
2023-03-01T11:27:04.810Z,51.65
2023-03-01T11:29:48.539Z,51.95
2023-03-01T11:32:17.874Z,51.65
2023-03-01T11:34:51.388Z,50.73
2023-03-01T11:37:32.219Z,51.63
2023-03-01T11:40:22.274Z,50.60
2023-03-01T11:43:12.474Z,50.30
2023-03-01T11:45:49.989Z,50.30
2023-03-01T11:48:49.864Z,50.59
2023-03-01T11:51:26.757Z,49.91
2023-03-01T11:54:10.118Z,49.39
2023-03-01T11:56:42.949Z,48.57
2023-03-01T11:59:46.295Z,47.79
2023-03-01T12:02:48.627Z,48.07
2023-03-01T12:05:33.693Z,48.87
2023-03-01T12:08:11.066Z,48.32
2023-03-01T12:10:50.977Z,47.13
2023-03-01T12:13:32.864Z,46.72
2023-03-01T12:16:38.856Z,45.93
2023-03-01T12:19:21.878Z,44.71
2023-03-01T12:22:05.698Z,44.01
2023-03-01T12:24:48.755Z,42.21
2023-03-01T12:27:41.031Z,42.75
2023-03-01T12:30:26.145Z,39.73
2023-03-01T12:33:06.006Z,37.73
2023-03-01T12:35:56.276Z,36.42
2023-03-01T12:38:36.564Z,35.52
2023-03-01T12:41:22.283Z,37.80
2023-03-01T12:44:05.968Z,36.09
2023-03-01T12:46:47.218Z,35.11
2023-03-01T12:49:18.339Z,33.41
2023-03-01T12:51:56.889Z,34.13
2023-03-01T12:54:32.599Z,33.83
2023-03-01T12:57:12.212Z,33.04
2023-03-01T12:59:51.341Z,33.32
2023-03-01T13:02:26.989Z,33.69
2023-03-01T13:05:09.093Z,34.42
2023-03-01T13:07:43.402Z,33.65
2023-03-01T13:10:22.233Z,34.12
2023-03-01T13:13:05.555Z,34.72
2023-03-01T13:15:37.863Z,34.79
2023-03-01T13:18:30.909Z,35.30
2023-03-01T13:21:01.536Z,35.85
2023-03-01T13:23:33.258Z,35.84
2023-03-01T13:26:14.143Z,35.52
2023-03-01T13:28:51.149Z,35.61
2023-03-01T13:32:02.791Z,36.29
2023-03-01T13:34:56.612Z,36.54
2023-03-01T13:37:31.568Z,36.18
2023-03-01T13:40:05.260Z,36.23
2023-03-01T13:42:43.286Z,37.09
2023-03-01T13:45:26.619Z,36.62
2023-03-01T13:48:03.429Z,35.75
2023-03-01T13:50:41.123Z,35.41
2023-03-01T13:53:16.366Z,36.33
2023-03-01T13:55:47.597Z,36.39
2023-03-01T13:58:22.940Z,36.11
2023-03-01T14:00:58.404Z,35.57
2023-03-01T14:03:27.257Z,35.75
2023-03-01T14:06:15.678Z,35.75
2023-03-01T14:08:45.265Z,36.44
2023-03-01T14:11:53.270Z,36.71
2023-03-01T14:14:42.490Z,36.82
2023-03-01T14:17:30.662Z,37.21
2023-03-01T14:20:01.543Z,36.30
2023-03-01T14:22:34.248Z,35.87
2023-03-01T14:25:03.987Z,35.04
2023-03-01T14:27:37.400Z,35.41
2023-03-01T14:30:14.893Z,35.77
2023-03-01T14:32:43.198Z,35.65
2023-03-01T14:35:23.105Z,35.77
2023-03-01T14:37:52.767Z,36.04
2023-03-01T14:40:27.304Z,36.48
2023-03-01T14:42:57.230Z,36.68
2023-03-01T14:45:27.450Z,36.80
2023-03-01T14:47:57.096Z,37.30
2023-03-01T14:50:28.198Z,37.34
2023-03-01T14:53:01.016Z,36.89
2023-03-01T14:55:33.689Z,38.01
2023-03-01T14:58:03.541Z,37.25
2023-03-01T15:00:35.146Z,37.12
2023-03-01T15:03:14.351Z,37.22
2023-03-01T15:05:45.363Z,37.26
2023-03-01T15:08:21.532Z,37.05
2023-03-01T15:11:01.660Z,36.83
2023-03-01T15:13:34.099Z,36.82
2023-03-01T15:16:13.576Z,36.85
2023-03-01T15:18:47.210Z,38.09
2023-03-01T15:21:21.103Z,38.52
2023-03-01T15:23:56.401Z,39.08
2023-03-01T15:26:31.720Z,39.08
2023-03-01T15:29:02.112Z,38.52
2023-03-01T15:31:33.605Z,37.99
2023-03-01T15:34:13.554Z,38.43
2023-03-01T15:36:45.543Z,38.45
2023-03-01T15:39:34.095Z,39.02
2023-03-01T15:42:03.377Z,38.70
2023-03-01T15:44:42.699Z,38.00
2023-03-01T15:47:27.065Z,38.81
2023-03-01T15:49:56.797Z,38.18
2023-03-01T15:52:30.568Z,38.67
2023-03-01T15:55:03.730Z,38.72
2023-03-01T15:57:32.033Z,38.81
2023-03-01T16:00:00.245Z,38.81
2023-03-01T16:02:28.424Z,39.01
2023-03-01T16:04:57.562Z,38.71
2023-03-01T16:07:27.912Z,39.36
2023-03-01T16:09:56.007Z,39.22
2023-03-01T16:12:26.309Z,39.11
2023-03-01T16:14:55.096Z,39.84
2023-03-01T16:17:23.265Z,39.79
2023-03-01T16:19:51.572Z,39.86
2023-03-01T16:22:25.856Z,40.19
2023-03-01T16:24:54.137Z,40.67
2023-03-01T16:27:23.001Z,40.62
2023-03-01T16:29:52.547Z,41.22
2023-03-01T16:32:20.771Z,41.68
2023-03-01T16:34:50.404Z,41.83
2023-03-01T16:37:20.304Z,41.86
2023-03-01T16:39:49.901Z,42.55
2023-03-01T16:42:19.421Z,42.59
2023-03-01T16:44:47.509Z,42.30
2023-03-01T16:47:17.025Z,42.82
2023-03-01T16:49:45.300Z,43.40
2023-03-01T16:52:13.444Z,43.61
2023-03-01T16:54:41.655Z,43.86
2023-03-01T16:57:09.822Z,44.00
2023-03-01T16:59:38.449Z,44.52
2023-03-01T17:02:07.140Z,44.79
2023-03-01T17:04:36.631Z,45.17
2023-03-01T17:07:05.202Z,45.29
2023-03-01T17:09:36.783Z,45.73
2023-03-01T17:12:05.447Z,46.47
2023-03-01T17:14:33.639Z,46.24
2023-03-01T17:17:02.546Z,46.38
2023-03-01T17:19:30.604Z,46.74
2023-03-01T17:22:01.240Z,47.19
2023-03-01T17:24:30.152Z,47.92
2023-03-01T17:26:58.281Z,48.50
2023-03-01T17:29:26.503Z,48.43
2023-03-01T17:31:56.746Z,48.53
2023-03-01T17:34:25.592Z,49.02
2023-03-01T17:36:54.861Z,49.06
2023-03-01T17:39:28.627Z,48.94
2023-03-01T17:41:58.734Z,48.90
2023-03-01T17:44:27.265Z,48.64
2023-03-01T17:46:55.390Z,48.56
2023-03-01T17:49:23.724Z,48.83
2023-03-01T17:51:51.807Z,49.15
2023-03-01T17:54:19.876Z,49.27
2023-03-01T17:56:49.379Z,49.96
2023-03-01T17:59:18.757Z,50.90
2023-03-01T18:01:47.251Z,51.29
2023-03-01T18:04:15.725Z,51.60
2023-03-01T18:06:43.774Z,52.55
2023-03-01T18:09:12.072Z,52.80
2023-03-01T18:11:42.101Z,52.98
2023-03-01T18:14:11.504Z,52.92
2023-03-01T18:16:40.112Z,53.07
2023-03-01T18:19:08.289Z,53.00
2023-03-01T18:21:36.317Z,52.91
2023-03-01T18:24:04.536Z,52.87
2023-03-01T18:26:33.058Z,52.94
2023-03-01T18:29:03.528Z,53.01
2023-03-01T18:31:33.834Z,53.11
2023-03-01T18:34:02.207Z,53.12
2023-03-01T18:36:33.088Z,53.36
2023-03-01T18:39:02.925Z,53.26
2023-03-01T18:41:32.953Z,53.50
2023-03-01T18:44:02.536Z,53.41
2023-03-01T18:46:33.352Z,53.60
2023-03-01T18:49:02.827Z,53.56
2023-03-01T18:51:31.368Z,53.72
2023-03-01T18:53:59.951Z,54.74
2023-03-01T18:56:29.963Z,55.85
2023-03-01T18:58:59.514Z,55.37
2023-03-01T19:01:30.227Z,55.97
2023-03-01T19:04:00.260Z,56.04
2023-03-01T19:06:32.000Z,55.30
2023-03-01T19:09:01.334Z,55.38
2023-03-01T19:11:31.178Z,55.37
2023-03-01T19:14:01.011Z,54.97
2023-03-01T19:16:31.206Z,54.83
2023-03-01T19:19:03.065Z,54.75
2023-03-01T19:21:32.951Z,54.71
2023-03-01T19:24:03.992Z,54.87
2023-03-01T19:26:33.225Z,55.40
2023-03-01T19:29:02.991Z,55.34
2023-03-01T19:31:31.859Z,55.38
2023-03-01T19:34:11.097Z,55.60
2023-03-01T19:36:41.854Z,55.98
2023-03-01T19:39:11.500Z,55.90
2023-03-01T19:41:39.608Z,56.32
2023-03-01T19:44:08.751Z,56.87
2023-03-01T19:46:37.332Z,58.24
2023-03-01T19:49:07.869Z,58.35
2023-03-01T19:51:38.880Z,58.43
2023-03-01T19:54:09.915Z,58.21
2023-03-01T19:56:38.214Z,58.53
2023-03-01T19:59:06.951Z,58.10
2023-03-01T20:01:37.687Z,57.82
2023-03-01T20:04:09.142Z,57.70
2023-03-01T20:06:38.157Z,57.64
2023-03-01T20:09:19.280Z,57.56
2023-03-01T20:11:49.057Z,57.62
2023-03-01T20:14:17.152Z,58.41
2023-03-01T20:16:45.269Z,58.98
2023-03-01T20:19:14.714Z,59.30
2023-03-01T20:21:42.815Z,59.21
2023-03-01T20:24:10.944Z,59.18
2023-03-01T20:26:41.055Z,59.43
2023-03-01T20:29:09.936Z,60.07
2023-03-01T20:31:39.861Z,59.94
2023-03-01T20:34:08.233Z,59.22
2023-03-01T20:36:41.080Z,59.08
2023-03-01T20:39:09.760Z,59.03
2023-03-01T20:41:37.848Z,59.22
2023-03-01T20:44:06.770Z,59.48
2023-03-01T20:46:36.442Z,59.18
2023-03-01T20:49:06.432Z,59.16
2023-03-01T20:51:34.704Z,59.22
2023-03-01T20:54:05.177Z,59.29
2023-03-01T20:56:33.887Z,59.34
2023-03-01T20:59:05.904Z,59.51
2023-03-01T21:01:34.061Z,61.12
2023-03-01T21:04:02.477Z,61.77
2023-03-01T21:06:31.378Z,62.65
2023-03-01T21:08:59.707Z,62.84
2023-03-01T21:11:29.221Z,63.64
2023-03-01T21:13:57.632Z,63.73
2023-03-01T21:16:26.314Z,62.71
2023-03-01T21:18:55.793Z,62.18
2023-03-01T21:21:25.073Z,61.60
2023-03-01T21:23:54.587Z,61.32
2023-03-01T21:26:24.632Z,61.25
2023-03-01T21:28:57.187Z,61.11
2023-03-01T21:31:28.614Z,61.72
2023-03-01T21:33:58.986Z,61.63
2023-03-01T21:36:29.913Z,61.58
2023-03-01T21:39:01.621Z,61.64
2023-03-01T21:41:31.787Z,61.89
2023-03-01T21:44:03.187Z,61.80
2023-03-01T21:46:36.730Z,62.66
2023-03-01T21:49:07.275Z,62.55
2023-03-01T21:51:36.616Z,62.64
2023-03-01T21:54:05.656Z,62.54
2023-03-01T21:56:38.952Z,62.61
2023-03-01T21:59:10.344Z,62.67
2023-03-01T22:01:38.602Z,62.53
2023-03-01T22:04:06.822Z,62.17
2023-03-01T22:06:40.510Z,62.08
2023-03-01T22:09:11.064Z,62.22
2023-03-01T22:11:41.837Z,62.25
2023-03-01T22:14:13.609Z,62.28
2023-03-01T22:16:43.579Z,62.04
2023-03-01T22:19:12.107Z,62.29
2023-03-01T22:21:40.832Z,62.28
2023-03-01T22:24:10.278Z,62.23
2023-03-01T22:26:40.735Z,62.26
2023-03-01T22:29:12.124Z,62.22
2023-03-01T22:31:40.822Z,62.34
2023-03-01T22:34:09.109Z,63.00
2023-03-01T22:36:39.279Z,64.56
2023-03-01T22:39:07.739Z,66.08
2023-03-01T22:41:38.504Z,66.00
2023-03-01T22:44:06.830Z,65.49
2023-03-01T22:46:36.247Z,64.52
2023-03-01T22:49:05.379Z,63.74
2023-03-01T22:51:35.653Z,63.21
2023-03-01T22:54:04.138Z,63.05
2023-03-01T22:56:34.716Z,63.00
2023-03-01T22:59:05.224Z,62.22
2023-03-01T23:01:33.418Z,61.89
2023-03-01T23:04:03.640Z,61.65
2023-03-01T23:06:32.142Z,61.56
2023-03-01T23:09:04.224Z,61.46
2023-03-01T23:11:32.475Z,61.25
2023-03-01T23:14:00.731Z,61.29
2023-03-01T23:16:29.036Z,61.40
2023-03-01T23:19:01.643Z,61.06
2023-03-01T23:21:31.325Z,61.06
2023-03-01T23:23:59.438Z,60.97
2023-03-01T23:26:29.065Z,60.94
2023-03-01T23:28:57.266Z,60.57
2023-03-01T23:31:30.274Z,62.64
2023-03-01T23:33:58.401Z,63.71
2023-03-01T23:36:27.900Z,64.02
2023-03-01T23:38:59.934Z,64.03
2023-03-01T23:41:30.025Z,63.21
2023-03-01T23:44:00.378Z,62.51
2023-03-01T23:46:31.454Z,62.42
2023-03-01T23:49:00.458Z,62.29
2023-03-01T23:51:29.480Z,62.38
2023-03-01T23:54:02.438Z,62.33
2023-03-01T23:56:33.506Z,63.19
2023-03-01T23:59:03.577Z,64.28
